x

Georgian Bay (45137) Wave Buoy

1:00am - Sun 28th May 2017 All times are CDT. -5 hours from GMT.

  • Sig Wave height 0.3ft
  • Peak Period 2s
  • Wind
    7mph, 7mph gusts
  • Sea Temp 42°f
  • Air Temp 44°f
  • Sea Pressure 1012.2mb
  • Georgian Bay
  • Georgian Bay

More Historic Weather Station data

Upgrade to MSW Pro to gain access to the past 30 days of data for over 8000 Wavebouys and Weather Stations around the globe.

Join Pro

Comparision Forecast

View Surf forecast
   
Sun 05/28 1:00am 0.3ft 2s 7 7 mph 1012.2mb 42f 44f
12:00am 0.3ft 2s 9 9 mph 1011.8mb 42f 44f
Sat 05/27 11:00pm 0.3ft 3s 9 9 mph 1012.5mb 42f 43f
10:00pm 0.3ft 3s 9 11 mph 1013.5mb 42f 44f
9:00pm 0.3ft 3s 7 7 mph 1012mb 42f 46f
8:00pm 0.7ft 3s 7 7 mph 1012.2mb 42f 45f
7:00pm 0.7ft 2s 7 7 mph 1012.8mb 42f 46f
6:00pm 0.3ft 2s 9 9 mph 1013.2mb 42f 45f
5:00pm 0.3ft 2s 9 9 mph 1013.2mb 42f 46f
4:00pm 0.3ft 3s 9 9 mph 1013mb 42f 45f
3:00pm 0.3ft 2s 7 7 mph 1013mb 42f 45f
2:00pm 0.3ft 2s 9 9 mph 1013.3mb 42f 46f
1:00pm 0.3ft 2s 9 9 mph 1013.4mb 42f 45f
12:00pm 0.3ft 2s 4 4 mph 1013.5mb 42f 43f
11:00am  -  2s 4 7 mph 1013.9mb 42f 43f
10:00am  -  2s 9 9 mph 1013.9mb 41f 43f
9:00am  -  2s 4 7 mph 1013.4mb 41f 43f
8:00am  -  2s 7 7 mph 1013.2mb 41f 43f
7:00am  -  2s 4 4 mph 1013.1mb 41f 43f
6:00am  -  2s 7 7 mph 1012.9mb 41f 43f
5:00am  -  2s 9 9 mph 1012.6mb 41f 43f
4:00am  -  3s 2 2 mph 1012.3mb 41f 44f
3:00am  -  8s 4 7 mph 1012.1mb 41f 44f
2:00am  -  4s 7 7 mph 1012.4mb 41f 45f
1:00am  -  2s 4 7 mph 1011.8mb 41f 46f
12:00am  -  2s 4 4 mph 1011.5mb 41f 47f
Fri 05/26 11:00pm  -  2s 4 4 mph 1011.9mb 41f 46f
10:00pm  -  2s 7 7 mph 1011.9mb 41f 45f
9:00pm  -  2s 7 7 mph 1011.5mb 41f 44f
8:00pm  -  2s 7 9 mph 1010.8mb 41f 44f
6:00pm 0.3ft 2s 4 7 mph 1010.4mb 41f 46f
5:00pm 0.3ft 2s 7 9 mph 1009.8mb 41f 49f
4:00pm 0.3ft 2s 9 9 mph 1009.3mb 41f 47f
3:00pm 0.3ft 2s 9 9 mph 1009.2mb 41f 46f
2:00pm 0.3ft 2s 9 9 mph 1009mb 41f 45f
1:00pm 0.3ft 2s 9 9 mph 1008.6mb 41f 45f
12:00pm 0.3ft 2s 7 9 mph 1008.2mb 41f 46f
11:00am 0.3ft 2s 9 9 mph 1007.8mb 41f 45f
10:00am 0.3ft 2s 9 9 mph 1007.6mb 41f 46f
9:00am 0.3ft 2s 9 11 mph 1007.4mb 40f 46f
8:00am 0.3ft 2s 9 11 mph 1007mb 40f 46f
7:00am 0.3ft 2s 9 9 mph 1006.6mb 40f 45f
6:00am 0.3ft 2s 9 9 mph 1006mb 40f 45f
5:00am 0.3ft 2s 9 13 mph 1005.4mb 40f 45f
4:00am 0.3ft 3s 9 9 mph 1004.8mb 40f 45f
3:00am 0.7ft 3s 9 11 mph 1004.3mb 40f 46f
2:00am 0.7ft 3s 9 9 mph 1004.2mb 40f 45f
1:00am 1ft 3s 9 9 mph 1004mb 40f 45f
12:00am 1ft 3s 11 13 mph 1003.8mb 40f 45f
Thu 05/25 11:00pm 1.3ft 4s 11 13 mph 1003.8mb 40f 46f
10:00pm 1.3ft 4s 13 13 mph 1003.7mb 40f 47f
9:00pm 1ft 3s 13 13 mph 1003.5mb 40f 47f
8:00pm 1.6ft 3s 13 13 mph 1003.1mb 40f 47f
7:00pm 1.6ft 3s 13 13 mph 1002.6mb 40f 47f
6:00pm 1.6ft 3s 16 18 mph 1002.2mb 40f 47f
5:00pm 1.3ft 3s 16 18 mph 1002.1mb 40f 47f
4:00pm 1.3ft 3s 13 13 mph 1002.2mb 40f 47f
3:00pm 1.3ft 3s 9 9 mph 1002.7mb 40f 46f
2:00pm 1ft 3s 11 13 mph 1003mb 40f 48f
1:00pm 1ft 3s 13 16 mph 1003mb 40f 49f
12:00pm 1ft 3s 11 13 mph 1003mb 40f 46f
11:00am 1.3ft 3s 9 11 mph 1003.5mb 40f 46f
10:00am 1.3ft 3s 13 16 mph 1003.8mb 40f 48f
9:00am 1.6ft 3s 16 22 mph 1003.8mb 40f 49f
8:00am 1.6ft 3s 16 18 mph 1003.8mb 40f 47f
7:00am 1.3ft 3s 16 18 mph 1003.9mb 40f 47f
6:00am 1ft 3s 16 18 mph 1003.9mb 40f 48f
5:00am 1ft 2s 16 18 mph 1004.4mb 40f 48f
4:00am 1ft 3s 13 16 mph 1004.1mb 40f 47f
3:00am 0.7ft 3s 13 16 mph 1004.5mb 40f 47f
2:00am 1ft 3s 9 11 mph 1005mb 40f 47f
1:00am 1ft 3s 13 16 mph 1005mb 40f 48f
12:00am 1.3ft 3s 13 16 mph 1005.4mb 40f 48f
Wed 05/24 11:00pm 1.6ft 3s 13 16 mph 1004.9mb 40f 48f
10:00pm 1.6ft 3s 16 18 mph 1005.2mb 40f 49f
9:00pm 1ft 3s 18 18 mph 1005.3mb 40f 51f
8:00pm 0.7ft 2s 16 18 mph 1005.3mb 40f 51f
6:00pm 0.3ft 2s 13 13 mph 1005.3mb 41f 51f
5:00pm 0.3ft 2s 9 11 mph 1005.4mb 41f 49f
4:00pm 0.3ft 2s 9 11 mph 1005.3mb 41f 49f
3:00pm 0.3ft 2s 9 11 mph 1005.8mb 41f 49f
2:00pm 0.3ft 2s 9 9 mph 1006.2mb 41f 48f
1:00pm 0.3ft 2s 9 9 mph 1006.5mb 41f 47f
12:00pm 0.3ft 2s 7 9 mph 1006.9mb 41f 46f
11:00am 0.3ft 2s 9 9 mph 1007.2mb 41f 46f
10:00am 0.3ft 2s 11 11 mph 1007.2mb 41f 46f
9:00am  -  2s 9 9 mph 1007.6mb 41f 45f
8:00am  -  2s 9 9 mph 1007.6mb 41f 46f